createdAt,value
2018-02-11T00:00:10.818Z,92.10
2018-02-11T00:02:38.469Z,92.10
2018-02-11T00:05:05.927Z,92.30
2018-02-11T00:07:33.393Z,92.10
2018-02-11T00:10:01.640Z,92.00
2018-02-11T00:12:29.117Z,92.00
2018-02-11T00:14:56.613Z,91.90
2018-02-11T00:17:24.079Z,92.10
2018-02-11T00:19:51.588Z,91.80
2018-02-11T00:22:19.058Z,91.90
2018-02-11T00:24:46.538Z,91.90
2018-02-11T00:27:14.447Z,91.90
2018-02-11T00:29:41.905Z,92.00
2018-02-11T00:32:09.398Z,91.90
2018-02-11T00:34:36.880Z,92.00
2018-02-11T00:37:04.351Z,91.80
2018-02-11T00:39:31.810Z,91.80
2018-02-11T00:41:59.274Z,91.80
2018-02-11T00:44:27.625Z,91.70
2018-02-11T00:46:55.109Z,91.70
2018-02-11T00:49:22.597Z,91.60
2018-02-11T00:51:50.078Z,91.50
2018-02-11T00:54:17.562Z,91.50
2018-02-11T00:56:45.140Z,91.70
2018-02-11T00:59:12.598Z,91.50
2018-02-11T01:01:40.100Z,91.20
2018-02-11T01:04:07.562Z,91.40
2018-02-11T01:06:35.081Z,91.20
2018-02-11T01:09:02.542Z,91.30
2018-02-11T01:11:30.046Z,91.20
2018-02-11T01:13:57.514Z,91.00
2018-02-11T01:16:24.985Z,90.90
2018-02-11T01:18:52.503Z,90.90
2018-02-11T01:21:19.961Z,90.90
2018-02-11T01:23:47.577Z,90.70
2018-02-11T01:26:15.050Z,90.80
2018-02-11T01:28:42.530Z,90.80
2018-02-11T01:31:09.990Z,90.90
2018-02-11T01:33:37.499Z,91.00
2018-02-11T01:36:04.951Z,90.90
2018-02-11T01:38:32.465Z,90.70
2018-02-11T01:40:59.934Z,90.90
2018-02-11T01:43:27.427Z,90.80
2018-02-11T01:45:54.955Z,90.70
2018-02-11T01:48:22.412Z,90.50
2018-02-11T01:50:49.994Z,90.70
2018-02-11T01:53:18.357Z,90.90
2018-02-11T01:55:46.641Z,90.70
2018-02-11T01:58:14.217Z,90.60
2018-02-11T02:00:41.666Z,90.60
2018-02-11T02:03:09.904Z,90.70
2018-02-11T02:05:37.373Z,90.70
2018-02-11T02:08:04.830Z,90.80
2018-02-11T02:10:33.085Z,90.50
2018-02-11T02:13:00.570Z,90.50
2018-02-11T02:15:28.018Z,90.60
2018-02-11T02:17:56.249Z,90.50
2018-02-11T02:20:23.769Z,90.50
2018-02-11T02:22:51.254Z,90.50
2018-02-11T02:25:18.760Z,90.50
2018-02-11T02:27:46.217Z,90.50
2018-02-11T02:30:13.671Z,90.80
2018-02-11T02:32:41.189Z,90.50
2018-02-11T02:35:08.774Z,90.50
2018-02-11T02:37:36.230Z,90.50
2018-02-11T02:40:03.745Z,90.50
2018-02-11T02:42:31.194Z,90.70
2018-02-11T02:44:58.709Z,90.50
2018-02-11T02:47:26.182Z,90.20
2018-02-11T02:49:53.674Z,90.40
2018-02-11T02:52:21.168Z,90.10
2018-02-11T02:54:48.749Z,90.40
2018-02-11T02:57:16.216Z,90.30
2018-02-11T02:59:43.717Z,90.10
2018-02-11T03:02:11.193Z,90.40
2018-02-11T03:04:38.648Z,90.50
2018-02-11T03:07:06.865Z,90.10
2018-02-11T03:09:34.365Z,90.10
2018-02-11T03:12:02.049Z,90.10
2018-02-11T03:14:29.554Z,90.10
2018-02-11T03:16:57.018Z,90.40
2018-02-11T03:19:24.509Z,90.30
2018-02-11T03:21:51.994Z,89.50
2018-02-11T03:24:19.463Z,89.80
2018-02-11T03:26:47.065Z,89.90
2018-02-11T03:29:14.548Z,89.30
2018-02-11T03:31:42.057Z,89.90
2018-02-11T03:34:09.523Z,89.80
2018-02-11T03:36:37.031Z,90.00
2018-02-11T03:39:04.486Z,89.60
2018-02-11T03:41:31.998Z,89.50
2018-02-11T03:43:59.460Z,89.50
2018-02-11T03:46:26.929Z,89.90
2018-02-11T03:48:54.437Z,89.80
2018-02-11T03:51:21.921Z,89.20
2018-02-11T03:53:49.414Z,89.40
2018-02-11T03:56:16.870Z,89.60
2018-02-11T03:58:44.371Z,89.60
2018-02-11T04:01:11.825Z,89.40
2018-02-11T04:03:39.334Z,89.20
2018-02-11T04:06:06.814Z,89.70
2018-02-11T04:08:34.317Z,89.90
2018-02-11T04:11:01.824Z,90.00
2018-02-11T04:13:29.244Z,89.50
2018-02-11T04:15:56.758Z,89.60
2018-02-11T04:18:24.229Z,89.30
2018-02-11T04:20:51.689Z,89.20
2018-02-11T04:23:19.202Z,89.30
2018-02-11T04:25:46.660Z,89.60
2018-02-11T04:28:14.148Z,90.00
2018-02-11T04:30:41.641Z,90.10
2018-02-11T04:33:09.109Z,90.20
2018-02-11T04:35:36.566Z,90.20
2018-02-11T04:38:04.792Z,90.70
2018-02-11T04:40:32.313Z,90.70
2018-02-11T04:42:59.805Z,90.80
2018-02-11T04:45:27.281Z,91.00
2018-02-11T04:47:54.741Z,91.30
2018-02-11T04:50:22.209Z,91.50
2018-02-11T04:52:49.671Z,91.50
2018-02-11T04:55:17.128Z,91.80
2018-02-11T04:57:44.611Z,91.50
2018-02-11T05:00:13.078Z,91.90
2018-02-11T05:02:40.532Z,91.80
2018-02-11T05:05:08.767Z,92.00
2018-02-11T05:07:36.286Z,91.70
2018-02-11T05:10:03.757Z,91.80
2018-02-11T05:12:31.214Z,92.00
2018-02-11T05:14:59.442Z,92.40
2018-02-11T05:17:27.661Z,92.20
2018-02-11T05:19:56.068Z,92.00
2018-02-11T05:22:23.524Z,92.00
2018-02-11T05:24:50.988Z,92.00
2018-02-11T05:27:18.490Z,91.90
2018-02-11T05:29:46.008Z,92.10
2018-02-11T05:32:13.485Z,92.00
2018-02-11T05:34:40.952Z,91.90
2018-02-11T05:37:09.569Z,91.70
2018-02-11T05:39:37.113Z,91.70
2018-02-11T05:42:04.569Z,91.90
2018-02-11T05:44:32.044Z,91.60
2018-02-11T05:47:00.260Z,91.40
2018-02-11T05:49:28.506Z,91.30
2018-02-11T05:51:56.121Z,91.30
2018-02-11T05:54:23.794Z,91.30
2018-02-11T05:56:52.034Z,91.10
2018-02-11T05:59:20.444Z,91.10
2018-02-11T06:01:48.683Z,91.00
2018-02-11T06:04:16.137Z,91.00
2018-02-11T06:06:44.383Z,90.90
2018-02-11T06:09:11.849Z,90.80
2018-02-11T06:11:39.312Z,90.70
2018-02-11T06:14:06.775Z,90.50
2018-02-11T06:16:34.253Z,90.50
2018-02-11T06:19:01.718Z,90.60
2018-02-11T06:21:29.209Z,90.40
2018-02-11T06:23:56.673Z,90.80
2018-02-11T06:26:24.172Z,90.60
2018-02-11T06:28:51.661Z,90.50
2018-02-11T06:31:19.142Z,90.30
2018-02-11T06:33:46.634Z,90.20
2018-02-11T06:36:14.107Z,90.10
2018-02-11T06:38:41.582Z,90.00
2018-02-11T06:41:09.065Z,89.70
2018-02-11T06:43:36.525Z,89.40
2018-02-11T06:46:03.988Z,89.00
2018-02-11T06:48:32.243Z,88.50
2018-02-11T06:50:59.732Z,88.40
2018-02-11T06:53:27.187Z,88.50
2018-02-11T06:55:54.709Z,88.30
2018-02-11T06:58:22.165Z,88.30
2018-02-11T07:00:50.427Z,88.70
2018-02-11T07:03:18.265Z,88.10
2018-02-11T07:05:46.160Z,88.00
2018-02-11T07:08:13.641Z,87.50
2018-02-11T07:10:41.910Z,87.40
2018-02-11T07:13:09.368Z,87.30
2018-02-11T07:15:36.825Z,87.20
2018-02-11T07:18:04.285Z,86.80
2018-02-11T07:20:31.752Z,86.70
2018-02-11T07:22:59.204Z,86.60
2018-02-11T07:25:27.446Z,85.80
2018-02-11T07:27:54.915Z,85.80
2018-02-11T07:30:22.401Z,85.70
2018-02-11T07:32:49.898Z,85.70
2018-02-11T07:35:17.359Z,85.80
2018-02-11T07:37:44.815Z,85.90
2018-02-11T07:40:13.065Z,86.10
2018-02-11T07:42:40.547Z,86.10
2018-02-11T07:45:08.039Z,86.00
2018-02-11T07:47:35.619Z,85.40
2018-02-11T07:50:03.081Z,85.20
2018-02-11T07:52:31.312Z,84.40
2018-02-11T07:54:58.827Z,84.40
2018-02-11T07:57:26.307Z,83.70
2018-02-11T07:59:53.754Z,83.60
2018-02-11T08:02:21.995Z,82.80
2018-02-11T08:04:49.466Z,82.80
2018-02-11T08:07:16.954Z,82.70
2018-02-11T08:09:44.455Z,82.50
2018-02-11T08:12:11.910Z,82.60
2018-02-11T08:14:39.363Z,82.60
2018-02-11T08:17:06.844Z,82.30
2018-02-11T08:19:34.406Z,82.70
2018-02-11T08:22:01.890Z,82.60
2018-02-11T08:24:30.141Z,82.00
2018-02-11T08:26:57.620Z,82.00
2018-02-11T08:29:25.116Z,82.10
2018-02-11T08:31:52.583Z,81.60
2018-02-11T08:34:20.046Z,81.40
2018-02-11T08:36:47.513Z,81.90
2018-02-11T08:39:15.021Z,81.60
2018-02-11T08:41:42.483Z,81.20
2018-02-11T08:44:09.946Z,81.30
2018-02-11T08:46:38.165Z,80.80
2018-02-11T08:49:05.660Z,80.70
2018-02-11T08:51:33.157Z,79.90
2018-02-11T08:54:00.634Z,78.50
2018-02-11T08:56:28.080Z,78.50
2018-02-11T08:58:55.598Z,78.90
2018-02-11T09:01:23.054Z,78.30
2018-02-11T09:03:50.503Z,77.70
2018-02-11T09:06:18.858Z,78.70
2018-02-11T09:08:46.318Z,78.60
2018-02-11T09:11:14.543Z,76.60
2018-02-11T09:13:41.997Z,76.60
2018-02-11T09:16:09.533Z,77.30
2018-02-11T09:18:37.086Z,77.00
2018-02-11T09:21:04.554Z,77.50
2018-02-11T09:23:32.011Z,77.90
2018-02-11T09:25:59.533Z,77.00
2018-02-11T09:28:26.984Z,76.70
2018-02-11T09:30:54.453Z,76.80
2018-02-11T09:33:22.669Z,78.30
2018-02-11T09:35:50.137Z,78.30
2018-02-11T09:38:17.665Z,76.50
2018-02-11T09:40:45.129Z,78.50
2018-02-11T09:43:12.621Z,78.00
2018-02-11T09:45:40.086Z,79.00
2018-02-11T09:48:07.537Z,82.50
2018-02-11T09:50:35.765Z,83.60
2018-02-11T09:53:03.213Z,83.60
2018-02-11T09:55:31.441Z,84.70
2018-02-11T09:57:58.895Z,84.70
2018-02-11T10:00:26.405Z,85.20
2018-02-11T10:02:53.906Z,85.80
2018-02-11T10:05:21.370Z,86.70
2018-02-11T10:07:48.870Z,86.70
2018-02-11T10:10:16.351Z,86.50
2018-02-11T10:12:43.829Z,87.10
2018-02-11T10:15:11.293Z,88.00
2018-02-11T10:17:39.615Z,87.20
2018-02-11T10:20:07.092Z,88.20
2018-02-11T10:22:34.573Z,88.30
2018-02-11T10:25:02.063Z,88.60
2018-02-11T10:27:29.520Z,89.10
2018-02-11T10:29:56.989Z,90.10
2018-02-11T10:32:24.443Z,90.30
2018-02-11T10:34:51.988Z,90.30
2018-02-11T10:37:19.474Z,90.70
2018-02-11T10:39:46.971Z,91.10
2018-02-11T10:42:14.630Z,90.80
2018-02-11T10:44:42.113Z,90.90
2018-02-11T10:47:09.577Z,90.70
2018-02-11T10:49:37.042Z,91.00
2018-02-11T10:52:04.502Z,90.80
2018-02-11T10:54:32.714Z,90.90
2018-02-11T10:57:00.174Z,90.80
2018-02-11T10:59:27.721Z,91.10
2018-02-11T11:01:55.206Z,90.80
2018-02-11T11:04:22.683Z,91.20
2018-02-11T11:06:50.150Z,90.90
2018-02-11T11:09:17.617Z,90.90
2018-02-11T11:11:45.129Z,90.90
2018-02-11T11:14:12.609Z,90.70
2018-02-11T11:16:40.074Z,91.40
2018-02-11T11:19:07.530Z,91.50
2018-02-11T11:21:35.757Z,91.40
2018-02-11T11:24:03.221Z,91.40
2018-02-11T11:26:30.676Z,91.70
2018-02-11T11:28:58.226Z,91.60
2018-02-11T11:31:25.754Z,91.60
2018-02-11T11:33:53.228Z,91.40
2018-02-11T11:36:20.701Z,91.30
2018-02-11T11:38:48.217Z,91.20
2018-02-11T11:41:16.453Z,91.40
2018-02-11T11:43:43.932Z,91.40
2018-02-11T11:46:11.382Z,90.60
2018-02-11T11:48:38.839Z,90.90
2018-02-11T11:51:06.401Z,90.80
2018-02-11T11:53:33.860Z,90.80
2018-02-11T11:56:02.087Z,90.90
2018-02-11T11:58:29.554Z,90.80
2018-02-11T12:00:57.959Z,91.70
2018-02-11T12:03:25.494Z,91.70
2018-02-11T12:05:52.949Z,91.60
2018-02-11T12:08:20.418Z,91.70
2018-02-11T12:10:47.901Z,92.00
2018-02-11T12:13:15.360Z,91.70
2018-02-11T12:15:43.713Z,91.50
2018-02-11T12:18:11.282Z,91.50
2018-02-11T12:20:38.778Z,91.70
2018-02-11T12:23:06.266Z,91.90
2018-02-11T12:25:33.736Z,92.30
2018-02-11T12:28:01.217Z,92.00
2018-02-11T12:30:28.689Z,92.10
2018-02-11T12:32:56.148Z,92.20
2018-02-11T12:35:23.664Z,92.40
2018-02-11T12:37:51.125Z,92.20
2018-02-11T12:40:18.599Z,91.90
2018-02-11T12:42:46.123Z,91.70
2018-02-11T12:45:13.582Z,91.80
2018-02-11T12:47:41.037Z,91.80
2018-02-11T12:50:08.498Z,91.90
2018-02-11T12:52:36.728Z,91.60
2018-02-11T12:55:04.247Z,91.60
2018-02-11T12:57:31.725Z,91.30
2018-02-11T12:59:59.201Z,91.10
2018-02-11T13:02:26.947Z,91.10
2018-02-11T13:04:54.438Z,91.40
2018-02-11T13:07:22.026Z,91.50
2018-02-11T13:09:49.481Z,91.30
2018-02-11T13:12:17.715Z,92.30
2018-02-11T13:14:45.221Z,92.30
2018-02-11T13:17:12.708Z,92.10
2018-02-11T13:19:40.452Z,92.00
2018-02-11T13:22:09.572Z,91.50
2018-02-11T13:24:37.258Z,92.10
2018-02-11T13:27:05.095Z,92.00
2018-02-11T13:29:32.836Z,92.30
2018-02-11T13:32:01.258Z,92.30
2018-02-11T13:34:28.941Z,92.30
2018-02-11T13:36:56.546Z,92.30
2018-02-11T13:39:24.115Z,92.00
2018-02-11T13:41:51.574Z,92.10
2018-02-11T13:44:19.815Z,91.80
2018-02-11T13:46:47.361Z,91.80
2018-02-11T13:49:15.611Z,91.60
2018-02-11T13:51:43.069Z,91.60
2018-02-11T13:54:10.589Z,92.10
2018-02-11T13:56:39.562Z,92.20
2018-02-11T13:59:07.020Z,92.20
2018-02-11T14:01:35.237Z,92.00
2018-02-11T14:04:02.745Z,92.00
2018-02-11T14:06:30.205Z,91.60
2018-02-11T14:08:57.687Z,91.40
2018-02-11T14:11:25.266Z,91.70
2018-02-11T14:13:52.778Z,91.70
2018-02-11T14:16:20.230Z,91.90
2018-02-11T14:18:47.695Z,91.90
2018-02-11T14:21:15.937Z,91.30
2018-02-11T14:23:43.471Z,91.30
2018-02-11T14:26:11.722Z,91.90
2018-02-11T14:28:39.219Z,92.00
2018-02-11T14:31:06.673Z,91.90
2018-02-11T14:33:34.170Z,92.10
2018-02-11T14:36:01.635Z,92.30
2018-02-11T14:38:29.091Z,92.10
2018-02-11T14:40:56.542Z,91.80
2018-02-11T14:43:24.721Z,92.10
2018-02-11T14:45:52.293Z,92.10
2018-02-11T14:48:19.765Z,92.20
2018-02-11T14:50:47.269Z,92.30
2018-02-11T14:53:14.724Z,92.60
2018-02-11T14:55:42.181Z,92.20
2018-02-11T14:58:09.637Z,92.20
2018-02-11T15:00:37.853Z,92.30
2018-02-11T15:03:06.079Z,91.80
2018-02-11T15:05:33.538Z,91.80
2018-02-11T15:08:01.017Z,92.40
2018-02-11T15:10:29.239Z,91.70
2018-02-11T15:12:56.749Z,91.70
2018-02-11T15:15:24.225Z,91.90
2018-02-11T15:17:51.702Z,92.00
2018-02-11T15:20:19.162Z,92.10
2018-02-11T15:22:46.654Z,92.10
2018-02-11T15:25:14.114Z,92.00
2018-02-11T15:27:41.565Z,91.80
2018-02-11T15:30:09.906Z,91.80
2018-02-11T15:32:37.409Z,91.70
2018-02-11T15:35:04.861Z,90.90
2018-02-11T15:37:32.326Z,90.80
2018-02-11T15:40:00.549Z,90.50
2018-02-11T15:42:28.012Z,90.50
2018-02-11T15:44:56.230Z,90.90
2018-02-11T15:47:23.734Z,90.90
2018-02-11T15:49:51.318Z,90.50
2018-02-11T15:52:18.774Z,90.60
2018-02-11T15:54:46.273Z,90.70
2018-02-11T15:57:13.740Z,90.90
2018-02-11T15:59:41.209Z,91.20
2018-02-11T16:02:08.657Z,91.10
2018-02-11T16:04:36.926Z,91.60
2018-02-11T16:07:04.405Z,91.60
2018-02-11T16:09:31.877Z,91.30
2018-02-11T16:11:59.349Z,91.40
2018-02-11T16:14:26.845Z,91.70
2018-02-11T16:16:54.329Z,91.70
2018-02-11T16:19:21.813Z,91.80
2018-02-11T16:21:49.266Z,91.90
2018-02-11T16:24:16.737Z,92.10
2018-02-11T16:26:44.253Z,92.20
2018-02-11T16:29:11.737Z,92.40
2018-02-11T16:31:39.203Z,92.70
2018-02-11T16:34:06.651Z,92.70
2018-02-11T16:36:34.866Z,92.40
2018-02-11T16:39:02.319Z,92.40
2018-02-11T16:41:29.856Z,92.50
2018-02-11T16:43:57.319Z,92.60
2018-02-11T16:46:24.780Z,92.70
2018-02-11T16:48:53.006Z,92.40
2018-02-11T16:51:20.509Z,92.40
2018-02-11T16:53:47.990Z,92.50
2018-02-11T16:56:15.462Z,92.40
2018-02-11T16:58:42.930Z,92.50
2018-02-11T17:01:10.433Z,92.40
2018-02-11T17:03:37.909Z,92.30
2018-02-11T17:06:05.373Z,92.40
2018-02-11T17:08:32.876Z,92.00
2018-02-11T17:11:00.353Z,92.00
2018-02-11T17:13:27.840Z,92.10
2018-02-11T17:15:55.309Z,92.00
2018-02-11T17:18:22.765Z,91.90
2018-02-11T17:20:50.221Z,92.20
2018-02-11T17:23:18.455Z,92.20
2018-02-11T17:25:45.905Z,92.10
2018-02-11T17:28:14.137Z,91.90
2018-02-11T17:30:41.639Z,91.80
2018-02-11T17:33:09.125Z,92.30
2018-02-11T17:35:36.574Z,92.20
2018-02-11T17:38:04.098Z,92.30
2018-02-11T17:40:31.572Z,92.60
2018-02-11T17:42:59.016Z,92.70
2018-02-11T17:45:26.528Z,93.00
2018-02-11T17:47:53.984Z,93.30
2018-02-11T17:50:21.493Z,93.30
2018-02-11T17:52:48.949Z,93.50
2018-02-11T17:55:16.463Z,93.70
2018-02-11T17:57:43.941Z,93.80
2018-02-11T18:00:11.398Z,94.00
2018-02-11T18:02:38.861Z,94.10
2018-02-11T18:05:07.112Z,94.10
2018-02-11T18:07:34.573Z,94.10
2018-02-11T18:10:02.065Z,94.10
2018-02-11T18:12:29.522Z,94.10
2018-02-11T18:14:56.997Z,94.00
2018-02-11T18:17:24.458Z,94.00
2018-02-11T18:19:52.757Z,94.10
2018-02-11T18:22:20.180Z,94.00
2018-02-11T18:24:48.442Z,94.00
2018-02-11T18:27:15.919Z,94.10
2018-02-11T18:29:44.149Z,94.10
2018-02-11T18:32:11.652Z,94.10
2018-02-11T18:34:39.135Z,94.10
2018-02-11T18:37:06.577Z,94.30
2018-02-11T18:39:34.032Z,94.40
2018-02-11T18:42:02.315Z,94.60
2018-02-11T18:44:29.780Z,94.40
2018-02-11T18:46:57.241Z,94.30
2018-02-11T18:49:24.749Z,94.30
2018-02-11T18:51:52.224Z,94.30
2018-02-11T18:54:19.715Z,94.20
2018-02-11T18:56:47.185Z,94.30
2018-02-11T18:59:14.637Z,94.30
2018-02-11T19:01:42.152Z,94.30
2018-02-11T19:04:09.616Z,94.30
2018-02-11T19:06:37.071Z,94.30
2018-02-11T19:09:05.350Z,94.30
2018-02-11T19:11:32.901Z,94.30
2018-02-11T19:14:00.354Z,94.70
2018-02-11T19:16:27.817Z,94.40
2018-02-11T19:18:56.113Z,94.50
2018-02-11T19:21:24.333Z,94.40
2018-02-11T19:23:51.786Z,94.30
2018-02-11T19:26:19.254Z,94.20
2018-02-11T19:28:46.779Z,94.10
2018-02-11T19:31:14.278Z,94.00
2018-02-11T19:33:41.735Z,94.00
2018-02-11T19:36:09.266Z,93.90
2018-02-11T19:38:36.733Z,93.90
2018-02-11T19:41:04.216Z,93.80
2018-02-11T19:43:31.677Z,93.80
2018-02-11T19:45:59.994Z,93.80
2018-02-11T19:48:28.456Z,93.60
2018-02-11T19:50:56.689Z,93.50
2018-02-11T19:53:24.190Z,93.50
2018-02-11T19:55:51.654Z,93.40
2018-02-11T19:58:19.105Z,93.30
2018-02-11T20:00:46.631Z,93.20
2018-02-11T20:03:14.089Z,93.30
2018-02-11T20:05:41.547Z,93.40
2018-02-11T20:08:09.777Z,93.40
2018-02-11T20:10:37.279Z,93.40
2018-02-11T20:13:04.741Z,93.40
2018-02-11T20:15:32.247Z,93.50
2018-02-11T20:17:59.737Z,93.40
2018-02-11T20:20:27.213Z,93.40
2018-02-11T20:22:54.669Z,93.30
2018-02-11T20:25:22.155Z,93.40
2018-02-11T20:27:49.645Z,93.40
2018-02-11T20:30:17.131Z,93.30
2018-02-11T20:32:44.616Z,93.40
2018-02-11T20:35:12.073Z,93.50
2018-02-11T20:37:39.593Z,93.70
2018-02-11T20:40:07.065Z,93.70
2018-02-11T20:42:34.587Z,93.70
2018-02-11T20:45:02.080Z,93.70
2018-02-11T20:47:29.533Z,93.60
2018-02-11T20:49:57.005Z,93.70
2018-02-11T20:52:25.227Z,93.90
2018-02-11T20:54:52.816Z,93.80
2018-02-11T20:57:20.270Z,93.90
2018-02-11T20:59:48.512Z,94.10
2018-02-11T21:02:16.014Z,94.10
2018-02-11T21:04:43.482Z,93.90
2018-02-11T21:07:10.946Z,93.80
2018-02-11T21:09:38.427Z,93.80
2018-02-11T21:12:05.986Z,93.90
2018-02-11T21:14:34.220Z,93.90
2018-02-11T21:17:01.732Z,93.90
2018-02-11T21:19:30.015Z,93.90
2018-02-11T21:21:57.599Z,93.90
2018-02-11T21:24:25.060Z,93.90
2018-02-11T21:26:53.328Z,93.90
2018-02-11T21:29:20.796Z,93.90
2018-02-11T21:31:48.257Z,94.00
2018-02-11T21:34:15.741Z,94.00
2018-02-11T21:36:43.195Z,94.00
2018-02-11T21:39:11.425Z,93.80
2018-02-11T21:41:38.934Z,93.80
2018-02-11T21:44:06.479Z,93.70
2018-02-11T21:46:34.710Z,93.70
2018-02-11T21:49:02.235Z,93.70
2018-02-11T21:51:29.711Z,93.70
2018-02-11T21:53:57.189Z,93.80
2018-02-11T21:56:24.771Z,93.90
2018-02-11T21:58:52.252Z,93.90
2018-02-11T22:01:19.739Z,93.90
2018-02-11T22:03:47.200Z,93.80
2018-02-11T22:06:14.709Z,93.80
2018-02-11T22:08:42.229Z,94.10
2018-02-11T22:11:10.463Z,94.20
2018-02-11T22:13:37.921Z,94.10
2018-02-11T22:16:05.398Z,94.20
2018-02-11T22:18:33.654Z,94.20
2018-02-11T22:21:01.127Z,94.20
2018-02-11T22:23:28.594Z,94.40
2018-02-11T22:25:56.124Z,94.60
2018-02-11T22:28:23.597Z,94.70
2018-02-11T22:30:51.080Z,94.90
2018-02-11T22:33:18.543Z,95.10
2018-02-11T22:35:45.998Z,95.00
2018-02-11T22:38:14.229Z,94.90
2018-02-11T22:40:41.757Z,94.90
2018-02-11T22:43:09.541Z,94.80
2018-02-11T22:45:37.024Z,94.70
2018-02-11T22:48:04.517Z,94.40
2018-02-11T22:50:31.980Z,94.20
2018-02-11T22:52:59.476Z,94.10
2018-02-11T22:55:26.941Z,94.10
2018-02-11T22:57:54.441Z,93.90
2018-02-11T23:00:21.923Z,93.80
2018-02-11T23:02:49.383Z,93.60
2018-02-11T23:05:16.903Z,93.50
2018-02-11T23:07:44.367Z,93.40
2018-02-11T23:10:11.878Z,93.20
2018-02-11T23:12:39.359Z,93.20
2018-02-11T23:15:06.811Z,93.30
2018-02-11T23:17:34.281Z,93.00
2018-02-11T23:20:01.742Z,93.10
2018-02-11T23:22:30.007Z,93.20
2018-02-11T23:24:57.487Z,93.20
2018-02-11T23:27:25.001Z,93.00
2018-02-11T23:29:52.461Z,93.00
2018-02-11T23:32:20.783Z,93.10
2018-02-11T23:34:48.273Z,93.00
2018-02-11T23:37:15.740Z,93.00
2018-02-11T23:39:43.240Z,92.80
2018-02-11T23:42:10.823Z,92.60
2018-02-11T23:44:38.278Z,92.50
2018-02-11T23:47:05.744Z,92.60
2018-02-11T23:49:33.275Z,92.60
2018-02-11T23:52:00.757Z,92.80
2018-02-11T23:54:28.220Z,92.80
2018-02-11T23:56:55.726Z,92.90
2018-02-11T23:59:23.197Z,92.90
